sensor_id;sensor_type;location;lat;lon;timestamp;pressure;altitude;pressure_sealevel;temperature;humidity
12624;BME280;6377;42.836;23.998;2023-11-18T00:01:04;94951.84;;;7.76;100.00
12624;BME280;6377;42.836;23.998;2023-11-18T00:03:33;94946.78;;;7.74;100.00
12624;BME280;6377;42.836;23.998;2023-11-18T00:06:00;94961.56;;;7.75;100.00
12624;BME280;6377;42.836;23.998;2023-11-18T00:08:29;94955.13;;;7.78;100.00
12624;BME280;6377;42.836;23.998;2023-11-18T00:10:56;94949.84;;;7.78;100.00
12624;BME280;6377;42.836;23.998;2023-11-18T00:13:23;94955.91;;;7.86;100.00
12624;BME280;6377;42.836;23.998;2023-11-18T00:15:52;94962.69;;;7.96;100.00
12624;BME280;6377;42.836;23.998;2023-11-18T00:18:19;94956.09;;;8.00;100.00
12624;BME280;6377;42.836;23.998;2023-11-18T00:20:48;94919.78;;;7.58;100.00
12624;BME280;6377;42.836;23.998;2023-11-18T00:23:16;94946.00;;;7.88;100.00
12624;BME280;6377;42.836;23.998;2023-11-18T00:25:43;94947.06;;;7.79;100.00
12624;BME280;6377;42.836;23.998;2023-11-18T00:28:11;94931.00;;;7.74;100.00
12624;BME280;6377;42.836;23.998;2023-11-18T00:30:38;94931.06;;;7.81;100.00
12624;BME280;6377;42.836;23.998;2023-11-18T00:33:05;94960.47;;;7.70;100.00
12624;BME280;6377;42.836;23.998;2023-11-18T00:35:33;94930.03;;;7.53;100.00
12624;BME280;6377;42.836;23.998;2023-11-18T00:38:02;94900.53;;;7.20;100.00
12624;BME280;6377;42.836;23.998;2023-11-18T00:40:30;94876.13;;;6.89;100.00
12624;BME280;6377;42.836;23.998;2023-11-18T00:42:57;94902.41;;;7.11;100.00
12624;BME280;6377;42.836;23.998;2023-11-18T00:45:24;94813.06;;;6.66;100.00
12624;BME280;6377;42.836;23.998;2023-11-18T00:47:52;94959.28;;;7.35;100.00
12624;BME280;6377;42.836;23.998;2023-11-18T00:50:20;94922.19;;;7.07;100.00
12624;BME280;6377;42.836;23.998;2023-11-18T00:52:47;94909.94;;;7.14;100.00
12624;BME280;6377;42.836;23.998;2023-11-18T00:55:17;94875.31;;;6.88;100.00
12624;BME280;6377;42.836;23.998;2023-11-18T00:57:45;94918.81;;;7.13;100.00
12624;BME280;6377;42.836;23.998;2023-11-18T01:00:13;94942.50;;;7.36;100.00
12624;BME280;6377;42.836;23.998;2023-11-18T01:02:41;94935.66;;;7.27;100.00
12624;BME280;6377;42.836;23.998;2023-11-18T01:05:09;94935.56;;;7.20;100.00
12624;BME280;6377;42.836;23.998;2023-11-18T01:07:37;94748.34;;;5.97;100.00
12624;BME280;6377;42.836;23.998;2023-11-18T01:10:04;94916.66;;;6.94;100.00
12624;BME280;6377;42.836;23.998;2023-11-18T01:12:34;94829.38;;;6.31;100.00
12624;BME280;6377;42.836;23.998;2023-11-18T01:15:01;94955.59;;;7.21;100.00
12624;BME280;6377;42.836;23.998;2023-11-18T01:17:29;94952.56;;;7.32;100.00
12624;BME280;6377;42.836;23.998;2023-11-18T01:19:57;94956.28;;;7.38;100.00
12624;BME280;6377;42.836;23.998;2023-11-18T01:22:24;94945.63;;;7.40;100.00
12624;BME280;6377;42.836;23.998;2023-11-18T01:24:52;94950.09;;;7.31;100.00
12624;BME280;6377;42.836;23.998;2023-11-18T01:27:19;94960.44;;;7.32;100.00
12624;BME280;6377;42.836;23.998;2023-11-18T01:29:48;94947.47;;;7.31;100.00
12624;BME280;6377;42.836;23.998;2023-11-18T01:32:15;94941.56;;;7.29;100.00
12624;BME280;6377;42.836;23.998;2023-11-18T01:34:43;94944.31;;;7.36;100.00
12624;BME280;6377;42.836;23.998;2023-11-18T01:37:15;94937.19;;;7.44;100.00
12624;BME280;6377;42.836;23.998;2023-11-18T01:39:43;94941.91;;;7.49;100.00
12624;BME280;6377;42.836;23.998;2023-11-18T01:42:10;94941.81;;;7.42;100.00
12624;BME280;6377;42.836;23.998;2023-11-18T01:44:37;94938.16;;;7.43;100.00
12624;BME280;6377;42.836;23.998;2023-11-18T01:47:07;94931.63;;;7.39;100.00
12624;BME280;6377;42.836;23.998;2023-11-18T01:49:37;94919.00;;;7.34;100.00
12624;BME280;6377;42.836;23.998;2023-11-18T01:52:06;94934.38;;;7.60;100.00
12624;BME280;6377;42.836;23.998;2023-11-18T01:54:36;94916.78;;;7.61;100.00
12624;BME280;6377;42.836;23.998;2023-11-18T01:57:05;94932.09;;;7.80;100.00
12624;BME280;6377;42.836;23.998;2023-11-18T01:59:35;94928.91;;;7.84;100.00
12624;BME280;6377;42.836;23.998;2023-11-18T02:02:05;94944.63;;;7.93;100.00
12624;BME280;6377;42.836;23.998;2023-11-18T02:04:33;94945.44;;;7.93;100.00
12624;BME280;6377;42.836;23.998;2023-11-18T02:07:00;94938.38;;;7.94;100.00
12624;BME280;6377;42.836;23.998;2023-11-18T02:09:35;94897.38;;;7.62;100.00
12624;BME280;6377;42.836;23.998;2023-11-18T02:12:10;94930.94;;;7.97;100.00
12624;BME280;6377;42.836;23.998;2023-11-18T02:14:43;94920.84;;;7.86;100.00
12624;BME280;6377;42.836;23.998;2023-11-18T02:17:14;94925.94;;;8.02;100.00
12624;BME280;6377;42.836;23.998;2023-11-18T02:19:44;94850.00;;;7.47;100.00
12624;BME280;6377;42.836;23.998;2023-11-18T02:22:12;94919.09;;;7.78;100.00
12624;BME280;6377;42.836;23.998;2023-11-18T02:24:40;94934.66;;;8.03;100.00
12624;BME280;6377;42.836;23.998;2023-11-18T02:27:09;94940.38;;;8.06;100.00
12624;BME280;6377;42.836;23.998;2023-11-18T02:29:39;94944.81;;;8.06;100.00
12624;BME280;6377;42.836;23.998;2023-11-18T02:32:13;94936.56;;;8.09;100.00
12624;BME280;6377;42.836;23.998;2023-11-18T02:34:48;94934.75;;;8.09;100.00
12624;BME280;6377;42.836;23.998;2023-11-18T02:37:17;94938.28;;;8.16;100.00
12624;BME280;6377;42.836;23.998;2023-11-18T02:39:51;94935.75;;;8.23;100.00
12624;BME280;6377;42.836;23.998;2023-11-18T02:42:22;94928.22;;;8.20;100.00
12624;BME280;6377;42.836;23.998;2023-11-18T02:44:50;94933.75;;;8.10;100.00
12624;BME280;6377;42.836;23.998;2023-11-18T02:47:25;94951.75;;;8.07;100.00
12624;BME280;6377;42.836;23.998;2023-11-18T02:49:54;94955.00;;;8.09;100.00
12624;BME280;6377;42.836;23.998;2023-11-18T02:52:22;94966.34;;;7.95;100.00
12624;BME280;6377;42.836;23.998;2023-11-18T02:54:49;94972.69;;;7.85;100.00
12624;BME280;6377;42.836;23.998;2023-11-18T02:57:16;94932.44;;;7.62;100.00
12624;BME280;6377;42.836;23.998;2023-11-18T02:59:45;94892.19;;;7.39;100.00
12624;BME280;6377;42.836;23.998;2023-11-18T03:02:13;94960.94;;;7.73;100.00
12624;BME280;6377;42.836;23.998;2023-11-18T03:04:40;94875.59;;;7.16;100.00
12624;BME280;6377;42.836;23.998;2023-11-18T03:07:09;94961.56;;;7.75;100.00
12624;BME280;6377;42.836;23.998;2023-11-18T03:09:37;94954.13;;;7.79;100.00
12624;BME280;6377;42.836;23.998;2023-11-18T03:12:06;94935.06;;;7.62;100.00
12624;BME280;6377;42.836;23.998;2023-11-18T03:14:33;94931.09;;;7.44;100.00
12624;BME280;6377;42.836;23.998;2023-11-18T03:17:02;94939.28;;;7.26;100.00
12624;BME280;6377;42.836;23.998;2023-11-18T03:19:33;94895.56;;;6.80;100.00
12624;BME280;6377;42.836;23.998;2023-11-18T03:22:01;94939.09;;;6.82;100.00
12624;BME280;6377;42.836;23.998;2023-11-18T03:24:28;94936.56;;;6.66;100.00
12624;BME280;6377;42.836;23.998;2023-11-18T03:26:56;94952.91;;;6.76;100.00
12624;BME280;6377;42.836;23.998;2023-11-18T03:29:23;94949.81;;;6.72;100.00
12624;BME280;6377;42.836;23.998;2023-11-18T03:31:50;94910.53;;;6.48;100.00
12624;BME280;6377;42.836;23.998;2023-11-18T03:34:20;94939.09;;;6.51;100.00
12624;BME280;6377;42.836;23.998;2023-11-18T03:36:47;94925.72;;;6.30;100.00
12624;BME280;6377;42.836;23.998;2023-11-18T03:39:14;94843.22;;;5.78;100.00
12624;BME280;6377;42.836;23.998;2023-11-18T03:41:42;94887.06;;;6.08;100.00
12624;BME280;6377;42.836;23.998;2023-11-18T03:44:10;94863.97;;;6.03;100.00
12624;BME280;6377;42.836;23.998;2023-11-18T03:46:38;94979.16;;;6.84;100.00
12624;BME280;6377;42.836;23.998;2023-11-18T03:49:06;94828.97;;;6.11;100.00
12624;BME280;6377;42.836;23.998;2023-11-18T03:51:35;94916.56;;;6.57;100.00
12624;BME280;6377;42.836;23.998;2023-11-18T03:54:02;94909.16;;;6.60;100.00
12624;BME280;6377;42.836;23.998;2023-11-18T03:56:30;94942.41;;;6.99;100.00
12624;BME280;6377;42.836;23.998;2023-11-18T03:58:57;94886.03;;;6.78;100.00
12624;BME280;6377;42.836;23.998;2023-11-18T04:01:25;94899.25;;;6.93;100.00
12624;BME280;6377;42.836;23.998;2023-11-18T04:03:53;94935.66;;;7.27;100.00
12624;BME280;6377;42.836;23.998;2023-11-18T04:06:21;94879.34;;;6.99;100.00
12624;BME280;6377;42.836;23.998;2023-11-18T04:08:51;94888.75;;;7.16;100.00
12624;BME280;6377;42.836;23.998;2023-11-18T04:11:19;94881.66;;;7.16;100.00
12624;BME280;6377;42.836;23.998;2023-11-18T04:13:46;94876.06;;;7.19;100.00
12624;BME280;6377;42.836;23.998;2023-11-18T04:16:14;94889.53;;;7.39;100.00
12624;BME280;6377;42.836;23.998;2023-11-18T04:18:43;94834.63;;;6.99;100.00
12624;BME280;6377;42.836;23.998;2023-11-18T04:21:11;94861.91;;;7.20;100.00
12624;BME280;6377;42.836;23.998;2023-11-18T04:23:39;94912.34;;;7.61;100.00
12624;BME280;6377;42.836;23.998;2023-11-18T04:26:09;94932.59;;;7.61;100.00
12624;BME280;6377;42.836;23.998;2023-11-18T04:28:36;94905.84;;;7.57;100.00
12624;BME280;6377;42.836;23.998;2023-11-18T04:31:04;94903.84;;;7.59;100.00
12624;BME280;6377;42.836;23.998;2023-11-18T04:33:32;94906.09;;;7.62;100.00
12624;BME280;6377;42.836;23.998;2023-11-18T04:36:00;94911.00;;;7.65;100.00
12624;BME280;6377;42.836;23.998;2023-11-18T04:38:27;94906.38;;;7.67;100.00
12624;BME280;6377;42.836;23.998;2023-11-18T04:40:54;94937.97;;;7.67;100.00
12624;BME280;6377;42.836;23.998;2023-11-18T04:43:23;94908.75;;;7.62;100.00
12624;BME280;6377;42.836;23.998;2023-11-18T04:45:50;94929.13;;;7.60;100.00
12624;BME280;6377;42.836;23.998;2023-11-18T04:48:18;94935.41;;;7.59;100.00
12624;BME280;6377;42.836;23.998;2023-11-18T04:50:47;94933.28;;;7.55;100.00
12624;BME280;6377;42.836;23.998;2023-11-18T04:53:14;94933.38;;;7.47;100.00
12624;BME280;6377;42.836;23.998;2023-11-18T04:55:41;94936.28;;;7.52;100.00
12624;BME280;6377;42.836;23.998;2023-11-18T04:58:08;94931.69;;;7.54;100.00
12624;BME280;6377;42.836;23.998;2023-11-18T05:00:37;94913.84;;;7.41;100.00
12624;BME280;6377;42.836;23.998;2023-11-18T05:03:05;94911.50;;;7.46;100.00
12624;BME280;6377;42.836;23.998;2023-11-18T05:05:35;94910.16;;;7.50;100.00
12624;BME280;6377;42.836;23.998;2023-11-18T05:08:03;94918.53;;;7.31;100.00
12624;BME280;6377;42.836;23.998;2023-11-18T05:10:32;94894.59;;;7.03;100.00
12624;BME280;6377;42.836;23.998;2023-11-18T05:12:59;94917.38;;;7.11;100.00
12624;BME280;6377;42.836;23.998;2023-11-18T05:15:26;94879.53;;;6.74;100.00
12624;BME280;6377;42.836;23.998;2023-11-18T05:17:56;94919.94;;;6.96;100.00
12624;BME280;6377;42.836;23.998;2023-11-18T05:20:24;94921.59;;;6.97;100.00
12624;BME280;6377;42.836;23.998;2023-11-18T05:22:51;94926.31;;;7.02;100.00
12624;BME280;6377;42.836;23.998;2023-11-18T05:25:18;94934.84;;;7.04;100.00
12624;BME280;6377;42.836;23.998;2023-11-18T05:27:45;94930.88;;;7.08;100.00
12624;BME280;6377;42.836;23.998;2023-11-18T05:30:12;94931.53;;;7.10;100.00
12624;BME280;6377;42.836;23.998;2023-11-18T05:32:40;94904.00;;;6.98;100.00
12624;BME280;6377;42.836;23.998;2023-11-18T05:35:08;94910.16;;;7.13;100.00
12624;BME280;6377;42.836;23.998;2023-11-18T05:37:37;94928.28;;;7.22;100.00
12624;BME280;6377;42.836;23.998;2023-11-18T05:40:07;94909.72;;;7.24;100.00
12624;BME280;6377;42.836;23.998;2023-11-18T05:42:37;94863.56;;;6.99;100.00
12624;BME280;6377;42.836;23.998;2023-11-18T05:45:07;94911.09;;;7.34;100.00
12624;BME280;6377;42.836;23.998;2023-11-18T05:47:43;94909.78;;;7.39;100.00
12624;BME280;6377;42.836;23.998;2023-11-18T05:50:11;94908.78;;;7.40;100.00
12624;BME280;6377;42.836;23.998;2023-11-18T05:52:40;94904.16;;;7.42;100.00
12624;BME280;6377;42.836;23.998;2023-11-18T05:55:08;94905.84;;;7.34;100.00
12624;BME280;6377;42.836;23.998;2023-11-18T05:57:35;94850.84;;;6.88;100.00
12624;BME280;6377;42.836;23.998;2023-11-18T06:00:03;94900.06;;;7.16;100.00
12624;BME280;6377;42.836;23.998;2023-11-18T06:02:31;94917.25;;;7.27;100.00
12624;BME280;6377;42.836;23.998;2023-11-18T06:04:59;94870.81;;;6.97;100.00
12624;BME280;6377;42.836;23.998;2023-11-18T06:07:31;94919.91;;;7.27;100.00
12624;BME280;6377;42.836;23.998;2023-11-18T06:09:58;94896.28;;;6.96;100.00
12624;BME280;6377;42.836;23.998;2023-11-18T06:12:25;94938.41;;;7.11;100.00
12624;BME280;6377;42.836;23.998;2023-11-18T06:14:52;94777.97;;;6.13;100.00
12624;BME280;6377;42.836;23.998;2023-11-18T06:17:19;94948.06;;;7.18;100.00
12624;BME280;6377;42.836;23.998;2023-11-18T06:19:47;94951.44;;;7.04;100.00
12624;BME280;6377;42.836;23.998;2023-11-18T06:22:15;94953.69;;;6.85;100.00
12624;BME280;6377;42.836;23.998;2023-11-18T06:24:43;94928.41;;;6.53;100.00
12624;BME280;6377;42.836;23.998;2023-11-18T06:27:11;94968.81;;;6.83;100.00
12624;BME280;6377;42.836;23.998;2023-11-18T06:29:38;94977.81;;;6.88;100.00
12624;BME280;6377;42.836;23.998;2023-11-18T06:32:08;94972.31;;;6.75;100.00
12624;BME280;6377;42.836;23.998;2023-11-18T06:34:35;94839.66;;;5.62;100.00
12624;BME280;6377;42.836;23.998;2023-11-18T06:37:03;94973.59;;;6.40;100.00
12624;BME280;6377;42.836;23.998;2023-11-18T06:39:34;94944.34;;;5.96;100.00
12624;BME280;6377;42.836;23.998;2023-11-18T06:42:07;94984.81;;;6.26;100.00
12624;BME280;6377;42.836;23.998;2023-11-18T06:44:37;94988.72;;;6.38;100.00
12624;BME280;6377;42.836;23.998;2023-11-18T06:47:04;95003.28;;;6.49;100.00
12624;BME280;6377;42.836;23.998;2023-11-18T06:49:33;95006.84;;;6.64;100.00
12624;BME280;6377;42.836;23.998;2023-11-18T06:52:03;94855.53;;;5.69;100.00
12624;BME280;6377;42.836;23.998;2023-11-18T06:54:30;94906.34;;;5.92;100.00
12624;BME280;6377;42.836;23.998;2023-11-18T06:56:59;95015.31;;;6.35;100.00
12624;BME280;6377;42.836;23.998;2023-11-18T06:59:30;94940.78;;;5.89;100.00
12624;BME280;6377;42.836;23.998;2023-11-18T07:01:58;94824.00;;;5.06;100.00
12624;BME280;6377;42.836;23.998;2023-11-18T07:04:25;94972.88;;;6.15;100.00
12624;BME280;6377;42.836;23.998;2023-11-18T07:06:52;94932.06;;;5.97;100.00
12624;BME280;6377;42.836;23.998;2023-11-18T07:09:19;95021.16;;;6.53;100.00
12624;BME280;6377;42.836;23.998;2023-11-18T07:11:47;94941.13;;;5.86;100.00
12624;BME280;6377;42.836;23.998;2023-11-18T07:14:17;95025.19;;;6.33;100.00
12624;BME280;6377;42.836;23.998;2023-11-18T07:16:45;94984.19;;;6.08;100.00
12624;BME280;6377;42.836;23.998;2023-11-18T07:19:13;95016.00;;;6.21;100.00
12624;BME280;6377;42.836;23.998;2023-11-18T07:21:45;95004.50;;;6.30;100.00
12624;BME280;6377;42.836;23.998;2023-11-18T07:24:13;94940.59;;;5.66;100.00
12624;BME280;6377;42.836;23.998;2023-11-18T07:26:40;95007.81;;;6.16;100.00
12624;BME280;6377;42.836;23.998;2023-11-18T07:29:07;95020.47;;;6.12;100.00
12624;BME280;6377;42.836;23.998;2023-11-18T07:31:35;95004.50;;;6.30;100.00
12624;BME280;6377;42.836;23.998;2023-11-18T07:34:04;95015.63;;;6.40;100.00
12624;BME280;6377;42.836;23.998;2023-11-18T07:36:32;95014.97;;;6.38;100.00
12624;BME280;6377;42.836;23.998;2023-11-18T07:38:59;95003.56;;;6.15;100.00
12624;BME280;6377;42.836;23.998;2023-11-18T07:41:28;95004.25;;;5.93;100.00
12624;BME280;6377;42.836;23.998;2023-11-18T07:43:57;95040.16;;;6.00;100.00
12624;BME280;6377;42.836;23.998;2023-11-18T07:46:25;95022.44;;;6.02;100.00
12624;BME280;6377;42.836;23.998;2023-11-18T07:48:54;95029.50;;;5.86;100.00
12624;BME280;6377;42.836;23.998;2023-11-18T07:51:24;95034.75;;;5.78;100.00
12624;BME280;6377;42.836;23.998;2023-11-18T07:53:52;95030.78;;;5.82;100.00
12624;BME280;6377;42.836;23.998;2023-11-18T07:58:45;95049.31;;;5.64;100.00
12624;BME280;6377;42.836;23.998;2023-11-18T08:01:12;95042.94;;;5.75;100.00
12624;BME280;6377;42.836;23.998;2023-11-18T08:03:41;95048.53;;;5.63;100.00
12624;BME280;6377;42.836;23.998;2023-11-18T08:06:10;95016.38;;;5.53;100.00
12624;BME280;6377;42.836;23.998;2023-11-18T08:08:39;95053.44;;;5.75;100.00
12624;BME280;6377;42.836;23.998;2023-11-18T08:11:07;95013.25;;;5.58;100.00
12624;BME280;6377;42.836;23.998;2023-11-18T08:13:34;94994.88;;;5.50;100.00
12624;BME280;6377;42.836;23.998;2023-11-18T08:16:01;95066.69;;;5.49;100.00
12624;BME280;6377;42.836;23.998;2023-11-18T08:18:28;95066.19;;;5.53;100.00
12624;BME280;6377;42.836;23.998;2023-11-18T08:20:58;95005.97;;;5.03;100.00
12624;BME280;6377;42.836;23.998;2023-11-18T08:23:32;95024.16;;;5.05;100.00
12624;BME280;6377;42.836;23.998;2023-11-18T08:26:01;94968.56;;;4.69;100.00
12624;BME280;6377;42.836;23.998;2023-11-18T08:28:29;95001.25;;;5.07;100.00
12624;BME280;6377;42.836;23.998;2023-11-18T08:30:57;95061.28;;;5.42;100.00
12624;BME280;6377;42.836;23.998;2023-11-18T08:33:24;94975.81;;;4.91;100.00
12624;BME280;6377;42.836;23.998;2023-11-18T08:35:51;94983.34;;;4.94;100.00
12624;BME280;6377;42.836;23.998;2023-11-18T08:38:22;94967.94;;;4.75;100.00
12624;BME280;6377;42.836;23.998;2023-11-18T08:40:50;94995.09;;;4.74;100.00
12624;BME280;6377;42.836;23.998;2023-11-18T08:43:19;95012.03;;;4.96;100.00
12624;BME280;6377;42.836;23.998;2023-11-18T08:48:21;95022.53;;;4.96;100.00
12624;BME280;6377;42.836;23.998;2023-11-18T08:50:48;94966.41;;;4.65;100.00
12624;BME280;6377;42.836;23.998;2023-11-18T08:53:17;95016.59;;;4.86;100.00
12624;BME280;6377;42.836;23.998;2023-11-18T08:55:49;95042.97;;;4.84;100.00
12624;BME280;6377;42.836;23.998;2023-11-18T08:58:21;95057.28;;;5.14;100.00
12624;BME280;6377;42.836;23.998;2023-11-18T09:00:56;95013.72;;;5.13;100.00
12624;BME280;6377;42.836;23.998;2023-11-18T09:03:31;94923.88;;;4.63;100.00
12624;BME280;6377;42.836;23.998;2023-11-18T09:06:02;95006.63;;;5.05;100.00
12624;BME280;6377;42.836;23.998;2023-11-18T09:08:31;95048.16;;;5.50;100.00
12624;BME280;6377;42.836;23.998;2023-11-18T09:11:01;95020.63;;;5.38;100.00
12624;BME280;6377;42.836;23.998;2023-11-18T09:13:32;94999.63;;;5.22;100.00
12624;BME280;6377;42.836;23.998;2023-11-18T09:16:01;95010.44;;;5.27;100.00
12624;BME280;6377;42.836;23.998;2023-11-18T09:18:30;95049.00;;;5.51;100.00
12624;BME280;6377;42.836;23.998;2023-11-18T09:20:58;95019.66;;;5.31;100.00
12624;BME280;6377;42.836;23.998;2023-11-18T09:23:27;95001.63;;;5.28;100.00
12624;BME280;6377;42.836;23.998;2023-11-18T09:25:54;95019.63;;;5.55;100.00
12624;BME280;6377;42.836;23.998;2023-11-18T09:28:24;95032.28;;;5.60;100.00
12624;BME280;6377;42.836;23.998;2023-11-18T09:30:55;95028.00;;;5.51;100.00
12624;BME280;6377;42.836;23.998;2023-11-18T09:33:25;95008.94;;;5.08;100.00
12624;BME280;6377;42.836;23.998;2023-11-18T09:35:57;94998.13;;;5.03;100.00
12624;BME280;6377;42.836;23.998;2023-11-18T09:38:26;94979.97;;;5.10;100.00
12624;BME280;6377;42.836;23.998;2023-11-18T09:40:57;94997.66;;;5.24;100.00
12624;BME280;6377;42.836;23.998;2023-11-18T09:43:29;95019.97;;;5.28;100.00
12624;BME280;6377;42.836;23.998;2023-11-18T09:46:04;95008.63;;;5.20;100.00
12624;BME280;6377;42.836;23.998;2023-11-18T09:48:41;94991.28;;;5.19;100.00
12624;BME280;6377;42.836;23.998;2023-11-18T09:51:20;95017.16;;;5.22;100.00
12624;BME280;6377;42.836;23.998;2023-11-18T09:53:51;95004.69;;;5.16;100.00
12624;BME280;6377;42.836;23.998;2023-11-18T09:56:24;95004.53;;;5.17;100.00
12624;BME280;6377;42.836;23.998;2023-11-18T09:59:07;94966.16;;;4.92;100.00
12624;BME280;6377;42.836;23.998;2023-11-18T10:01:43;95045.19;;;5.29;100.00
12624;BME280;6377;42.836;23.998;2023-11-18T10:04:13;95013.72;;;5.13;100.00
12624;BME280;6377;42.836;23.998;2023-11-18T10:06:44;95007.31;;;5.16;100.00
12624;BME280;6377;42.836;23.998;2023-11-18T10:09:12;94865.06;;;4.41;100.00
12624;BME280;6377;42.836;23.998;2023-11-18T10:11:44;95056.22;;;5.65;100.00
12624;BME280;6377;42.836;23.998;2023-11-18T10:14:14;94980.94;;;5.17;100.00
12624;BME280;6377;42.836;23.998;2023-11-18T10:16:44;95046.22;;;5.69;100.00
12624;BME280;6377;42.836;23.998;2023-11-18T10:19:14;95019.31;;;5.58;100.00
12624;BME280;6377;42.836;23.998;2023-11-18T10:21:43;95042.28;;;5.81;100.00
12624;BME280;6377;42.836;23.998;2023-11-18T10:24:14;94980.31;;;5.39;100.00
12624;BME280;6377;42.836;23.998;2023-11-18T10:26:46;95044.91;;;5.81;100.00
12624;BME280;6377;42.836;23.998;2023-11-18T10:29:14;94974.25;;;5.31;100.00
12624;BME280;6377;42.836;23.998;2023-11-18T10:31:45;95004.72;;;5.40;100.00
12624;BME280;6377;42.836;23.998;2023-11-18T10:34:13;94979.00;;;5.19;100.00
12624;BME280;6377;42.836;23.998;2023-11-18T10:36:42;94824.31;;;4.30;100.00
12624;BME280;6377;42.836;23.998;2023-11-18T10:39:29;94982.59;;;5.34;100.00
12624;BME280;6377;42.836;23.998;2023-11-18T10:42:01;95004.72;;;5.56;100.00
12624;BME280;6377;42.836;23.998;2023-11-18T10:44:29;95050.63;;;5.84;100.00
12624;BME280;6377;42.836;23.998;2023-11-18T10:46:58;95024.88;;;5.47;100.00
12624;BME280;6377;42.836;23.998;2023-11-18T10:49:26;94997.50;;;5.26;100.00
12624;BME280;6377;42.836;23.998;2023-11-18T10:51:55;95036.53;;;5.45;100.00
12624;BME280;6377;42.836;23.998;2023-11-18T10:54:22;94985.66;;;4.97;100.00
12624;BME280;6377;42.836;23.998;2023-11-18T10:56:52;95051.63;;;5.43;100.00
12624;BME280;6377;42.836;23.998;2023-11-18T10:59:22;94981.06;;;4.99;100.00
12624;BME280;6377;42.836;23.998;2023-11-18T11:01:51;95052.72;;;5.32;100.00
12624;BME280;6377;42.836;23.998;2023-11-18T11:04:20;95022.53;;;5.04;100.00
12624;BME280;6377;42.836;23.998;2023-11-18T11:06:48;95056.47;;;5.22;99.78
12624;BME280;6377;42.836;23.998;2023-11-18T11:09:19;95035.47;;;5.05;100.00
12624;BME280;6377;42.836;23.998;2023-11-18T11:11:53;95006.28;;;4.84;95.79
12624;BME280;6377;42.836;23.998;2023-11-18T11:14:23;95035.94;;;4.93;98.42
12624;BME280;6377;42.836;23.998;2023-11-18T11:17:05;95009.84;;;4.75;98.96
12624;BME280;6377;42.836;23.998;2023-11-18T11:19:46;95050.88;;;5.08;100.00
12624;BME280;6377;42.836;23.998;2023-11-18T11:22:25;94999.69;;;4.72;100.00
12624;BME280;6377;42.836;23.998;2023-11-18T11:25:04;95003.28;;;4.71;100.00
12624;BME280;6377;42.836;23.998;2023-11-18T11:27:43;95008.50;;;4.63;96.78
12624;BME280;6377;42.836;23.998;2023-11-18T11:30:22;95022.25;;;4.65;100.00
12624;BME280;6377;42.836;23.998;2023-11-18T11:32:51;95051.03;;;4.99;100.00
12624;BME280;6377;42.836;23.998;2023-11-18T11:35:23;95052.97;;;4.97;100.00
12624;BME280;6377;42.836;23.998;2023-11-18T11:37:52;95035.03;;;4.68;96.16
12624;BME280;6377;42.836;23.998;2023-11-18T11:40:23;95059.47;;;4.85;99.52
12624;BME280;6377;42.836;23.998;2023-11-18T11:42:56;95016.81;;;4.59;100.00
12624;BME280;6377;42.836;23.998;2023-11-18T11:45:33;94993.19;;;4.42;100.00
12624;BME280;6377;42.836;23.998;2023-11-18T11:48:07;94999.41;;;4.41;100.00
12624;BME280;6377;42.836;23.998;2023-11-18T11:50:53;94984.44;;;4.26;95.92
12624;BME280;6377;42.836;23.998;2023-11-18T11:53:23;95061.75;;;4.80;100.00
12624;BME280;6377;42.836;23.998;2023-11-18T11:55:53;94991.19;;;4.36;99.75
12624;BME280;6377;42.836;23.998;2023-11-18T11:58:31;95009.97;;;4.66;100.00
12624;BME280;6377;42.836;23.998;2023-11-18T12:01:00;95059.69;;;4.99;92.46
12624;BME280;6377;42.836;23.998;2023-11-18T12:03:38;95019.81;;;4.72;95.31
12624;BME280;6377;42.836;23.998;2023-11-18T12:06:10;95064.13;;;4.99;95.82
12624;BME280;6377;42.836;23.998;2023-11-18T12:08:42;95015.03;;;4.67;98.65
12624;BME280;6377;42.836;23.998;2023-11-18T12:11:10;95035.56;;;4.88;97.77
12624;BME280;6377;42.836;23.998;2023-11-18T12:14:00;95030.00;;;4.83;96.72
12624;BME280;6377;42.836;23.998;2023-11-18T12:17:00;95066.25;;;5.03;96.91
12624;BME280;6377;42.836;23.998;2023-11-18T12:19:40;95038.69;;;4.83;99.05
12624;BME280;6377;42.836;23.998;2023-11-18T12:22:16;95064.91;;;4.91;96.73
12624;BME280;6377;42.836;23.998;2023-11-18T12:28:14;95016.03;;;4.66;99.03
12624;BME280;6377;42.836;23.998;2023-11-18T12:30:47;95078.19;;;4.98;98.10
12624;BME280;6377;42.836;23.998;2023-11-18T12:33:23;95029.59;;;4.62;100.00
12624;BME280;6377;42.836;23.998;2023-11-18T12:39:19;95075.56;;;4.90;100.00
12624;BME280;6377;42.836;23.998;2023-11-18T12:42:01;95007.97;;;4.60;100.00
12624;BME280;6377;42.836;23.998;2023-11-18T12:44:36;95006.50;;;4.57;99.56
12624;BME280;6377;42.836;23.998;2023-11-18T12:47:05;95014.06;;;4.60;100.00
12624;BME280;6377;42.836;23.998;2023-11-18T12:49:41;95052.94;;;4.89;100.00
12624;BME280;6377;42.836;23.998;2023-11-18T12:52:10;95006.31;;;4.50;100.00
12624;BME280;6377;42.836;23.998;2023-11-18T12:54:46;95067.97;;;4.79;100.00
12624;BME280;6377;42.836;23.998;2023-11-18T12:57:26;95013.44;;;4.40;100.00
12624;BME280;6377;42.836;23.998;2023-11-18T12:59:57;95067.00;;;4.80;100.00
12624;BME280;6377;42.836;23.998;2023-11-18T13:02:26;95018.47;;;4.60;98.80
12624;BME280;6377;42.836;23.998;2023-11-18T13:04:54;95086.03;;;4.90;98.64
12624;BME280;6377;42.836;23.998;2023-11-18T13:07:22;94997.09;;;4.38;93.61
12624;BME280;6377;42.836;23.998;2023-11-18T13:09:52;95042.16;;;4.58;97.97
12624;BME280;6377;42.836;23.998;2023-11-18T13:12:20;95029.44;;;4.63;96.20
12624;BME280;6377;42.836;23.998;2023-11-18T13:14:53;95094.03;;;4.88;94.26
12624;BME280;6377;42.836;23.998;2023-11-18T13:17:21;95032.50;;;4.50;99.12
12624;BME280;6377;42.836;23.998;2023-11-18T13:19:49;95070.75;;;4.77;98.76
12624;BME280;6377;42.836;23.998;2023-11-18T13:22:20;95066.75;;;4.57;95.91
12624;BME280;6377;42.836;23.998;2023-11-18T13:24:53;95030.69;;;4.43;96.10
12624;BME280;6377;42.836;23.998;2023-11-18T13:27:20;95064.56;;;4.52;98.47